createdAt,value
2022-10-22T00:02:16.104Z,10.45
2022-10-22T00:07:23.752Z,11.82
2022-10-22T00:09:51.245Z,9.88
2022-10-22T00:12:19.037Z,15.07
2022-10-22T00:14:46.742Z,9.45
2022-10-22T00:17:14.885Z,11.50
2022-10-22T00:19:42.169Z,14.52
2022-10-22T00:22:10.418Z,13.43
2022-10-22T00:24:39.053Z,11.98
2022-10-22T00:27:08.342Z,11.73
2022-10-22T00:29:36.061Z,11.15
2022-10-22T00:32:03.934Z,12.90
2022-10-22T00:34:42.511Z,14.90
2022-10-22T00:37:09.813Z,11.00
2022-10-22T00:39:37.090Z,13.43
2022-10-22T00:42:04.582Z,13.18
2022-10-22T00:45:02.901Z,11.82
2022-10-22T00:47:41.278Z,10.98
2022-10-22T00:50:45.767Z,14.23
2022-10-22T00:53:16.923Z,12.75
2022-10-22T00:55:46.474Z,10.80
2022-10-22T00:58:14.091Z,11.77
2022-10-22T01:00:41.967Z,10.45
2022-10-22T01:03:09.341Z,14.43
2022-10-22T01:05:59.850Z,12.52
2022-10-22T01:08:36.996Z,12.82
2022-10-22T01:11:10.274Z,11.60
2022-10-22T01:13:58.100Z,13.27
2022-10-22T01:17:06.202Z,12.88
2022-10-22T01:19:53.864Z,14.70
2022-10-22T01:22:48.703Z,17.42
2022-10-22T01:25:32.025Z,13.32
2022-10-22T01:28:13.407Z,12.50
2022-10-22T01:30:42.084Z,15.68
2022-10-22T01:33:13.119Z,13.85
2022-10-22T01:35:43.620Z,13.43
2022-10-22T01:38:17.044Z,12.95
2022-10-22T01:40:46.214Z,14.32
2022-10-22T01:43:16.726Z,14.18
2022-10-22T01:45:51.690Z,12.65
2022-10-22T01:48:33.827Z,14.93
2022-10-22T01:51:13.465Z,14.52
2022-10-22T01:53:50.974Z,12.25
2022-10-22T01:56:49.226Z,11.82
2022-10-22T01:59:30.288Z,12.90
2022-10-22T02:02:16.394Z,12.57
2022-10-22T02:04:57.001Z,17.85
2022-10-22T02:07:30.057Z,14.77
2022-10-22T02:09:59.631Z,12.05
2022-10-22T02:12:29.243Z,14.68
2022-10-22T02:14:58.966Z,12.43
2022-10-22T02:17:29.907Z,10.80
2022-10-22T02:20:01.377Z,13.68
2022-10-22T02:22:29.819Z,15.15
2022-10-22T02:24:57.329Z,14.75
2022-10-22T02:27:40.551Z,11.82
2022-10-22T02:32:57.464Z,15.02
2022-10-22T02:35:27.483Z,13.85
2022-10-22T02:37:57.094Z,14.98
2022-10-22T02:40:25.053Z,17.30
2022-10-22T02:42:53.337Z,15.30
2022-10-22T02:45:20.762Z,11.50
2022-10-22T02:47:48.103Z,12.05
2022-10-22T02:50:15.582Z,13.50
2022-10-22T02:52:43.098Z,11.98
2022-10-22T02:55:10.565Z,13.63
2022-10-22T02:57:37.978Z,12.63
2022-10-22T03:00:07.746Z,16.08
2022-10-22T03:02:35.358Z,12.45
2022-10-22T03:05:03.151Z,13.30
2022-10-22T03:07:30.505Z,13.90
2022-10-22T03:09:57.806Z,14.00
2022-10-22T03:12:25.031Z,13.23
2022-10-22T03:14:52.255Z,11.98
2022-10-22T03:17:19.545Z,12.93
2022-10-22T03:19:46.899Z,12.48
2022-10-22T03:22:24.910Z,13.40
2022-10-22T03:24:57.623Z,14.68
2022-10-22T03:27:28.267Z,14.77
2022-10-22T03:29:56.845Z,14.88
2022-10-22T03:32:24.238Z,12.88
2022-10-22T03:34:51.526Z,15.05
2022-10-22T03:37:18.949Z,14.68
2022-10-22T03:39:46.488Z,14.30
2022-10-22T03:42:13.785Z,12.48
2022-10-22T03:44:45.809Z,12.43
2022-10-22T03:47:13.253Z,11.25
2022-10-22T03:49:40.443Z,18.08
2022-10-22T03:52:13.564Z,12.70
2022-10-22T03:54:42.124Z,13.52
2022-10-22T03:57:10.120Z,12.55
2022-10-22T03:59:46.895Z,11.18
2022-10-22T04:02:14.718Z,12.65
2022-10-22T04:04:41.936Z,13.77
2022-10-22T04:07:09.367Z,13.20
2022-10-22T04:09:37.054Z,12.45
2022-10-22T04:12:06.617Z,12.18
2022-10-22T04:14:34.270Z,12.02
2022-10-22T04:17:01.911Z,13.48
2022-10-22T04:19:29.329Z,14.65
2022-10-22T04:21:59.233Z,15.68
2022-10-22T04:24:26.614Z,16.02
2022-10-22T04:26:54.808Z,13.88
2022-10-22T04:29:22.301Z,17.40
2022-10-22T04:31:49.626Z,14.98
2022-10-22T04:34:16.990Z,16.92
2022-10-22T04:36:44.207Z,16.40
2022-10-22T04:39:11.439Z,11.50
2022-10-22T04:41:39.613Z,16.75
2022-10-22T04:44:11.123Z,14.20
2022-10-22T04:46:42.586Z,11.80
2022-10-22T04:49:09.823Z,14.57
2022-10-22T04:51:37.263Z,14.85
2022-10-22T04:54:05.363Z,15.02
2022-10-22T04:56:33.324Z,13.10
2022-10-22T04:59:06.418Z,15.10
2022-10-22T05:01:40.011Z,13.57
2022-10-22T05:04:16.548Z,15.43
2022-10-22T05:06:44.613Z,14.95
2022-10-22T05:09:14.864Z,13.65
2022-10-22T05:11:48.408Z,14.07
2022-10-22T05:14:25.593Z,13.40
2022-10-22T05:16:53.565Z,18.20
2022-10-22T05:19:29.497Z,15.35
2022-10-22T05:24:37.942Z,16.40
2022-10-22T05:27:05.252Z,12.68
2022-10-22T05:29:32.615Z,12.98
2022-10-22T05:31:59.965Z,12.10
2022-10-22T05:34:27.176Z,13.23
2022-10-22T05:36:54.439Z,15.38
2022-10-22T05:39:21.930Z,15.75
2022-10-22T05:41:49.183Z,10.27
2022-10-22T05:44:16.483Z,13.20
2022-10-22T05:46:44.208Z,15.32
2022-10-22T05:49:15.144Z,16.30
2022-10-22T05:51:42.640Z,14.38
2022-10-22T05:54:17.439Z,17.38
2022-10-22T05:56:45.033Z,14.10
2022-10-22T05:59:13.285Z,15.02
2022-10-22T06:01:41.086Z,14.18
2022-10-22T06:04:11.579Z,15.57
2022-10-22T06:06:44.695Z,14.30
2022-10-22T06:09:26.862Z,14.82
2022-10-22T06:11:55.264Z,13.68
2022-10-22T06:14:23.142Z,13.40
2022-10-22T06:16:50.975Z,16.25
2022-10-22T06:19:20.306Z,12.85
2022-10-22T06:21:48.578Z,17.08
2022-10-22T06:24:16.222Z,13.35
2022-10-22T06:26:43.876Z,12.77
2022-10-22T06:29:11.653Z,14.05
2022-10-22T06:31:38.897Z,11.88
2022-10-22T06:34:18.867Z,12.68
2022-10-22T06:36:47.381Z,14.98
2022-10-22T06:40:27.050Z,17.25
2022-10-22T06:42:54.356Z,17.33
2022-10-22T06:45:47.532Z,14.27
2022-10-22T06:48:20.944Z,14.82
2022-10-22T06:50:48.360Z,14.13
2022-10-22T06:53:15.630Z,12.95
2022-10-22T06:55:42.933Z,13.70
2022-10-22T06:58:18.979Z,11.95
2022-10-22T07:00:46.222Z,14.30
2022-10-22T07:03:14.491Z,14.13
2022-10-22T07:05:42.544Z,15.15
2022-10-22T07:08:09.740Z,17.52
2022-10-22T07:10:49.238Z,12.82
2022-10-22T07:13:16.492Z,13.48
2022-10-22T07:15:43.758Z,16.20
2022-10-22T07:18:10.947Z,13.50
2022-10-22T07:20:38.239Z,13.90
2022-10-22T07:23:05.653Z,12.40
2022-10-22T07:25:33.129Z,13.40
2022-10-22T07:28:00.406Z,14.38
2022-10-22T07:30:28.163Z,11.98
2022-10-22T07:32:55.416Z,12.43
2022-10-22T07:35:22.673Z,12.65
2022-10-22T07:37:49.964Z,15.50
2022-10-22T07:40:17.342Z,10.18
2022-10-22T07:42:44.647Z,11.63
2022-10-22T07:45:11.904Z,13.18
2022-10-22T07:47:39.565Z,13.35
2022-10-22T07:50:07.808Z,11.60
2022-10-22T07:52:59.837Z,14.63
2022-10-22T07:55:29.559Z,11.13
2022-10-22T07:57:57.018Z,12.90
2022-10-22T08:00:26.884Z,13.30
2022-10-22T08:02:54.243Z,10.38
2022-10-22T08:05:21.606Z,10.18
2022-10-22T08:07:48.798Z,12.93
2022-10-22T08:10:16.139Z,11.57
2022-10-22T08:12:46.863Z,10.25
2022-10-22T08:15:14.540Z,8.82
2022-10-22T08:17:42.158Z,13.00
2022-10-22T08:20:10.190Z,12.20
2022-10-22T08:22:37.465Z,11.02
2022-10-22T08:25:05.447Z,10.50
2022-10-22T08:27:32.703Z,11.10
2022-10-22T08:29:59.984Z,11.38
2022-10-22T08:32:54.061Z,10.57
2022-10-22T08:35:22.283Z,12.63
2022-10-22T08:37:49.579Z,9.90
2022-10-22T08:40:27.718Z,10.82
2022-10-22T08:43:16.833Z,14.98
2022-10-22T08:45:52.774Z,11.50
2022-10-22T08:48:44.716Z,11.43
2022-10-22T08:51:34.935Z,11.93
2022-10-22T08:54:34.521Z,15.23
2022-10-22T09:00:12.744Z,10.27
2022-10-22T09:02:52.773Z,10.93
2022-10-22T09:05:45.009Z,14.88
2022-10-22T09:08:15.171Z,11.95
2022-10-22T09:10:49.273Z,15.02
2022-10-22T09:13:18.913Z,12.60
2022-10-22T09:15:52.624Z,12.40
2022-10-22T09:18:27.738Z,9.57
2022-10-22T09:20:59.435Z,13.05
2022-10-22T09:23:38.459Z,11.68
2022-10-22T09:26:23.648Z,14.25
2022-10-22T09:28:51.984Z,13.98
2022-10-22T09:31:19.387Z,13.10
2022-10-22T09:33:48.949Z,23.45
2022-10-22T09:36:19.606Z,15.05
2022-10-22T09:38:53.168Z,15.43
2022-10-22T09:41:25.347Z,27.02
2022-10-22T09:43:52.694Z,17.67
2022-10-22T09:46:26.904Z,20.65
2022-10-22T09:49:00.018Z,36.35
2022-10-22T09:51:41.293Z,48.90
2022-10-22T09:54:19.303Z,37.10
2022-10-22T09:57:04.798Z,18.73
2022-10-22T09:59:38.394Z,13.70
2022-10-22T10:02:26.523Z,15.00
2022-10-22T10:05:05.716Z,16.27
2022-10-22T10:07:35.193Z,11.57
2022-10-22T10:10:19.596Z,18.27
2022-10-22T10:13:03.156Z,13.70
2022-10-22T10:15:40.284Z,14.95
2022-10-22T10:18:35.925Z,11.15
2022-10-22T10:21:21.026Z,11.93
2022-10-22T10:24:09.138Z,13.65
2022-10-22T10:26:54.687Z,14.20
2022-10-22T10:29:47.769Z,15.23
2022-10-22T10:32:23.577Z,14.30
2022-10-22T10:35:15.736Z,15.32
2022-10-22T10:38:08.714Z,17.00
2022-10-22T10:41:12.690Z,16.17
2022-10-22T10:43:59.703Z,15.02
2022-10-22T10:46:38.854Z,13.27
2022-10-22T10:49:25.615Z,12.80
2022-10-22T10:52:11.210Z,15.50
2022-10-22T10:54:57.085Z,15.85
2022-10-22T10:57:56.771Z,13.85
2022-10-22T11:00:26.547Z,13.93
2022-10-22T11:03:05.771Z,12.77
2022-10-22T11:05:55.418Z,13.48
2022-10-22T11:08:27.088Z,14.32
2022-10-22T11:11:00.696Z,12.55
2022-10-22T11:13:53.483Z,13.13
2022-10-22T11:16:37.008Z,18.45
2022-10-22T11:19:39.591Z,15.50
2022-10-22T11:23:00.452Z,15.20
2022-10-22T11:25:55.564Z,14.23
2022-10-22T11:28:53.418Z,13.10
2022-10-22T11:31:23.037Z,21.77
2022-10-22T11:34:09.775Z,12.80
2022-10-22T11:36:38.337Z,19.45
2022-10-22T11:39:06.001Z,18.55
2022-10-22T11:41:34.803Z,16.58
2022-10-22T11:44:10.598Z,16.40
2022-10-22T11:49:14.118Z,18.42
2022-10-22T11:51:43.420Z,15.90
2022-10-22T11:54:37.273Z,14.88
2022-10-22T11:57:16.806Z,13.23
2022-10-22T11:59:47.045Z,12.65
2022-10-22T12:02:39.995Z,14.80
2022-10-22T12:05:22.757Z,12.00
2022-10-22T12:07:54.996Z,12.18
2022-10-22T12:10:26.393Z,10.52
2022-10-22T12:13:13.401Z,10.27
2022-10-22T12:15:49.016Z,9.60
2022-10-22T12:18:16.923Z,9.20
2022-10-22T12:20:44.349Z,5.47
2022-10-22T12:23:13.440Z,9.60
2022-10-22T12:25:40.949Z,6.80
2022-10-22T12:28:14.624Z,7.72
2022-10-22T12:30:42.387Z,5.00
2022-10-22T12:33:20.700Z,5.05
2022-10-22T12:35:51.373Z,5.65
2022-10-22T12:38:25.664Z,3.78
2022-10-22T12:40:55.769Z,2.60
2022-10-22T12:43:27.024Z,3.22
2022-10-22T12:45:56.248Z,2.85
2022-10-22T12:48:28.338Z,4.47
2022-10-22T12:50:59.381Z,3.28
2022-10-22T12:53:39.347Z,4.53
2022-10-22T12:56:11.662Z,5.40
2022-10-22T12:58:43.112Z,6.40
2022-10-22T13:01:17.142Z,3.95
2022-10-22T13:03:50.522Z,5.88
2022-10-22T13:06:20.634Z,5.63
2022-10-22T13:09:16.688Z,4.95
2022-10-22T13:12:01.566Z,4.50
2022-10-22T13:14:31.595Z,7.97
2022-10-22T13:17:08.122Z,6.05
2022-10-22T13:19:41.015Z,8.07
2022-10-22T13:22:26.900Z,5.85
2022-10-22T13:27:29.184Z,4.22
2022-10-22T13:29:58.510Z,5.20
2022-10-22T13:32:28.130Z,6.15
2022-10-22T13:34:57.646Z,6.30
2022-10-22T13:37:25.407Z,8.98
2022-10-22T13:39:52.712Z,4.38
2022-10-22T13:42:20.082Z,8.85
2022-10-22T13:44:47.407Z,7.80
2022-10-22T13:47:29.412Z,6.40
2022-10-22T13:50:00.280Z,6.88
2022-10-22T13:52:39.946Z,4.85
2022-10-22T13:55:19.304Z,5.88
2022-10-22T13:57:47.656Z,5.47
2022-10-22T14:00:20.158Z,8.93
2022-10-22T14:02:50.473Z,7.97
2022-10-22T14:05:44.424Z,6.93
2022-10-22T14:08:15.133Z,6.13
2022-10-22T14:10:42.598Z,9.18
2022-10-22T14:13:11.130Z,6.07
2022-10-22T14:15:39.729Z,8.35
2022-10-22T14:18:08.704Z,6.60
2022-10-22T14:20:38.037Z,6.57
2022-10-22T14:23:14.526Z,6.47
2022-10-22T14:25:42.422Z,5.38
2022-10-22T14:28:11.394Z,4.85
2022-10-22T14:30:39.697Z,5.85
2022-10-22T14:33:31.283Z,4.07
2022-10-22T14:36:02.303Z,4.72
2022-10-22T14:38:29.602Z,4.55
2022-10-22T14:40:57.465Z,5.55
2022-10-22T14:43:28.949Z,5.45
2022-10-22T14:45:56.636Z,3.70
2022-10-22T14:48:24.510Z,7.68
2022-10-22T14:50:52.087Z,4.93
2022-10-22T14:53:19.467Z,5.18
2022-10-22T14:55:48.958Z,5.65
2022-10-22T14:58:16.580Z,5.90
2022-10-22T15:00:44.185Z,5.20
2022-10-22T15:03:11.950Z,3.40
2022-10-22T15:05:44.829Z,4.07
2022-10-22T15:08:14.561Z,3.53
2022-10-22T15:10:42.092Z,6.85
2022-10-22T15:13:09.805Z,4.03
2022-10-22T15:15:40.474Z,5.53
2022-10-22T15:18:07.807Z,5.97
2022-10-22T15:20:35.125Z,7.88
2022-10-22T15:23:02.585Z,5.00
2022-10-22T15:25:30.467Z,4.05
2022-10-22T15:28:00.824Z,4.78
2022-10-22T15:30:32.105Z,6.28
2022-10-22T15:32:59.298Z,6.22
2022-10-22T15:35:28.491Z,3.55
2022-10-22T15:37:55.738Z,6.70
2022-10-22T15:40:22.931Z,3.47
2022-10-22T15:42:50.184Z,5.75
2022-10-22T15:45:17.463Z,7.35
2022-10-22T15:47:47.612Z,7.18
2022-10-22T15:50:15.658Z,5.47
2022-10-22T15:52:42.968Z,8.60
2022-10-22T15:55:10.690Z,4.63
2022-10-22T15:58:06.778Z,5.95
2022-10-22T16:00:37.304Z,3.95
2022-10-22T16:03:04.662Z,4.80
2022-10-22T16:05:31.878Z,5.03
2022-10-22T16:07:59.082Z,5.88
2022-10-22T16:10:28.018Z,6.82
2022-10-22T16:12:56.658Z,5.90
2022-10-22T16:15:23.855Z,5.07
2022-10-22T16:17:51.975Z,6.95
2022-10-22T16:20:19.246Z,6.25
2022-10-22T16:22:49.809Z,7.18
2022-10-22T16:25:17.017Z,7.97
2022-10-22T16:27:44.269Z,4.57
2022-10-22T16:30:12.107Z,7.45
2022-10-22T16:32:39.763Z,7.60
2022-10-22T16:35:08.391Z,7.93
2022-10-22T16:37:35.637Z,8.73
2022-10-22T16:40:05.872Z,6.60
2022-10-22T16:42:35.558Z,6.10
2022-10-22T16:45:03.044Z,6.57
2022-10-22T16:47:30.276Z,7.70
2022-10-22T16:50:00.710Z,6.57
2022-10-22T16:52:28.169Z,6.68
2022-10-22T16:54:55.451Z,11.80
2022-10-22T16:57:22.706Z,13.82
2022-10-22T16:59:50.094Z,9.18
2022-10-22T17:02:17.317Z,6.35
2022-10-22T17:04:44.578Z,10.20
2022-10-22T17:07:11.874Z,9.25
2022-10-22T17:09:39.180Z,8.13
2022-10-22T17:12:06.568Z,6.70
2022-10-22T17:14:34.564Z,10.60
2022-10-22T17:17:01.810Z,6.82
2022-10-22T17:19:29.264Z,7.75
2022-10-22T17:21:56.537Z,8.05
2022-10-22T17:24:23.793Z,7.05
2022-10-22T17:26:51.098Z,7.15
2022-10-22T17:29:20.773Z,10.95
2022-10-22T17:31:48.298Z,7.55
2022-10-22T17:34:17.035Z,7.20
2022-10-22T17:36:45.021Z,8.60
2022-10-22T17:39:18.527Z,11.15
2022-10-22T17:41:45.955Z,8.95
2022-10-22T17:44:15.521Z,5.95
2022-10-22T17:46:43.837Z,7.30
2022-10-22T17:49:19.968Z,9.50
2022-10-22T17:51:47.576Z,7.00
2022-10-22T17:54:15.086Z,7.93
2022-10-22T17:56:42.485Z,8.88
2022-10-22T17:59:13.028Z,11.88
2022-10-22T18:01:45.167Z,9.25
2022-10-22T18:04:15.898Z,9.95
2022-10-22T18:06:43.287Z,8.80
2022-10-22T18:09:17.277Z,8.80
2022-10-22T18:11:46.591Z,9.45
2022-10-22T18:14:13.894Z,11.00
2022-10-22T18:16:42.547Z,12.45
2022-10-22T18:19:10.130Z,17.02
2022-10-22T18:21:37.428Z,14.63
2022-10-22T18:24:05.052Z,12.57
2022-10-22T18:26:32.612Z,11.98
2022-10-22T18:29:00.330Z,14.73
2022-10-22T18:31:30.218Z,16.52
2022-10-22T18:33:57.845Z,16.00
2022-10-22T18:36:27.033Z,14.07
2022-10-22T18:38:59.801Z,13.07
2022-10-22T18:41:29.301Z,13.57
2022-10-22T18:44:01.886Z,15.05
2022-10-22T18:46:30.390Z,11.30
2022-10-22T18:48:58.689Z,12.60
2022-10-22T18:51:31.630Z,11.98
2022-10-22T18:54:05.838Z,10.52
2022-10-22T18:56:45.396Z,9.95
2022-10-22T18:59:21.963Z,10.80
2022-10-22T19:01:51.262Z,8.00
2022-10-22T19:04:18.714Z,7.32
2022-10-22T19:06:46.201Z,12.15
2022-10-22T19:09:15.390Z,9.02
2022-10-22T19:11:44.984Z,11.20
2022-10-22T19:14:14.584Z,8.25
2022-10-22T19:16:41.930Z,10.95
2022-10-22T19:19:09.316Z,12.40
2022-10-22T19:21:38.187Z,8.63
2022-10-22T19:24:06.055Z,10.93
2022-10-22T19:26:33.877Z,12.45
2022-10-22T19:29:01.534Z,13.35
2022-10-22T19:31:30.084Z,14.35
2022-10-22T19:33:58.816Z,11.48
2022-10-22T19:36:30.244Z,9.38
2022-10-22T19:38:58.291Z,12.57
2022-10-22T19:41:27.207Z,9.98
2022-10-22T19:43:55.633Z,10.75
2022-10-22T19:46:23.884Z,12.18
2022-10-22T19:48:52.810Z,11.93
2022-10-22T19:51:26.466Z,13.10
2022-10-22T19:54:01.673Z,15.32
2022-10-22T19:56:30.449Z,8.23
2022-10-22T19:58:58.325Z,9.05
2022-10-22T20:01:26.495Z,11.27
2022-10-22T20:03:54.102Z,14.25
2022-10-22T20:06:22.101Z,10.32
2022-10-22T20:08:52.386Z,7.43
2022-10-22T20:11:25.390Z,6.60
2022-10-22T20:13:52.894Z,8.00
2022-10-22T20:16:23.162Z,10.93
2022-10-22T20:18:51.714Z,8.77
2022-10-22T20:21:19.458Z,10.32
2022-10-22T20:23:48.072Z,11.25
2022-10-22T20:26:15.378Z,9.40
2022-10-22T20:28:42.634Z,10.68
2022-10-22T20:31:15.383Z,10.88
2022-10-22T20:33:42.897Z,10.27
2022-10-22T20:36:15.806Z,9.95
2022-10-22T20:38:43.276Z,12.40
2022-10-22T20:41:13.776Z,11.52
2022-10-22T20:43:46.878Z,9.25
2022-10-22T20:46:29.255Z,9.15
2022-10-22T20:49:05.959Z,10.88
2022-10-22T20:51:34.862Z,10.65
2022-10-22T20:54:05.334Z,13.43
2022-10-22T20:56:33.331Z,16.17
2022-10-22T20:59:04.965Z,13.43
2022-10-22T21:01:39.299Z,10.10
2022-10-22T21:04:07.377Z,11.63
2022-10-22T21:06:38.027Z,9.90
2022-10-22T21:09:06.854Z,10.82
2022-10-22T21:11:35.648Z,13.32
2022-10-22T21:14:03.519Z,10.40
2022-10-22T21:16:30.924Z,13.23
2022-10-22T21:19:01.888Z,11.52
2022-10-22T21:21:29.166Z,10.85
2022-10-22T21:23:56.433Z,12.63
2022-10-22T21:26:24.217Z,15.75
2022-10-22T21:28:51.578Z,12.95
2022-10-22T21:31:22.001Z,11.82
2022-10-22T21:33:50.681Z,11.05
2022-10-22T21:36:22.678Z,12.70
2022-10-22T21:38:52.080Z,10.48
2022-10-22T21:41:22.470Z,8.95
2022-10-22T21:43:50.600Z,10.88
2022-10-22T21:46:20.552Z,13.27
2022-10-22T21:48:52.062Z,9.77
2022-10-22T21:51:20.056Z,17.17
2022-10-22T21:53:48.342Z,19.00
2022-10-22T21:56:20.584Z,23.88
2022-10-22T21:58:48.197Z,19.95
2022-10-22T22:01:16.440Z,22.00
2022-10-22T22:03:46.462Z,18.75
2022-10-22T22:06:13.883Z,18.40
2022-10-22T22:08:41.547Z,29.63
2022-10-22T22:11:17.994Z,25.55
2022-10-22T22:13:45.379Z,21.55
2022-10-22T22:16:16.884Z,16.45
2022-10-22T22:18:44.179Z,15.65
2022-10-22T22:21:14.349Z,15.52
2022-10-22T22:23:45.798Z,13.18
2022-10-22T22:26:14.674Z,13.13
2022-10-22T22:28:42.129Z,9.60
2022-10-22T22:31:33.159Z,9.45
2022-10-22T22:34:10.363Z,8.27
2022-10-22T22:36:39.967Z,12.77
2022-10-22T22:39:10.622Z,7.45
2022-10-22T22:41:37.917Z,8.68
2022-10-22T22:44:05.535Z,8.40
2022-10-22T22:46:33.005Z,9.85
2022-10-22T22:49:00.421Z,8.23
2022-10-22T22:51:28.047Z,11.38
2022-10-22T22:53:57.767Z,10.10
2022-10-22T22:56:27.817Z,8.85
2022-10-22T22:58:56.033Z,8.45
2022-10-22T23:01:27.185Z,7.82
2022-10-22T23:04:05.038Z,7.93
2022-10-22T23:06:37.253Z,8.57
2022-10-22T23:09:06.787Z,10.43
2022-10-22T23:11:34.580Z,8.88
2022-10-22T23:14:04.972Z,7.47
2022-10-22T23:16:35.323Z,9.50
2022-10-22T23:19:03.584Z,10.20
2022-10-22T23:21:33.659Z,10.00
2022-10-22T23:24:03.553Z,7.13
2022-10-22T23:26:33.878Z,9.25
2022-10-22T23:29:09.198Z,8.32
2022-10-22T23:31:36.651Z,9.80
2022-10-22T23:34:05.090Z,9.30
2022-10-22T23:36:34.135Z,7.95
2022-10-22T23:39:04.910Z,10.65
2022-10-22T23:42:46.641Z,8.43
2022-10-22T23:45:14.193Z,7.63
2022-10-22T23:47:41.676Z,8.70
2022-10-22T23:50:09.180Z,7.68
2022-10-22T23:56:37.682Z,8.30
2022-10-22T23:59:05.705Z,8.45
